createdAt,value
2017-10-24T14:02:26.450Z,75.96
2017-10-24T14:05:04.693Z,75.04
2017-10-24T14:09:44.034Z,75.89
2017-10-24T14:12:18.193Z,78.27
2017-10-24T14:14:52.623Z,76.78
2017-10-24T14:17:24.448Z,78.04
2017-10-24T14:19:55.510Z,77.50
2017-10-24T14:22:28.618Z,78.68
2017-10-24T14:25:00.585Z,78.15
2017-10-24T14:30:20.055Z,77.40
2017-10-24T14:32:52.905Z,79.54
2017-10-24T14:35:25.374Z,79.12
2017-10-24T14:37:57.662Z,78.90
2017-10-24T14:40:35.241Z,78.96
2017-10-24T14:43:07.745Z,79.53
2017-10-24T14:49:13.229Z,79.22
2017-10-24T14:51:43.827Z,78.88
2017-10-24T14:54:15.770Z,77.62
2017-10-24T14:56:47.261Z,77.87
2017-10-24T14:59:16.037Z,78.00
2017-10-24T15:01:46.107Z,77.59
2017-10-24T15:04:16.876Z,77.50
2017-10-24T15:06:46.425Z,76.27
2017-10-24T15:09:16.362Z,77.19
2017-10-24T15:11:45.173Z,76.88
2017-10-24T15:14:17.073Z,75.14
2017-10-24T15:16:45.895Z,75.59
2017-10-24T15:19:14.604Z,74.31
2017-10-24T15:21:45.625Z,76.38
2017-10-24T15:24:16.711Z,76.35
2017-10-24T15:26:47.340Z,76.40
2017-10-24T15:29:16.116Z,76.30
2017-10-24T15:31:47.216Z,76.81
2017-10-24T15:34:19.053Z,77.49
2017-10-24T15:36:47.830Z,77.67
2017-10-24T15:39:22.037Z,77.89
2017-10-24T15:41:51.800Z,77.16
2017-10-24T15:44:23.192Z,77.79
2017-10-24T15:46:53.937Z,78.92
2017-10-24T15:52:57.796Z,80.32
2017-10-24T15:55:27.428Z,80.21
2017-10-24T15:57:58.061Z,78.88
2017-10-24T16:00:27.828Z,79.04
2017-10-24T16:02:57.872Z,77.21
2017-10-24T16:05:27.836Z,77.74
2017-10-24T16:07:57.653Z,77.78
2017-10-24T16:10:26.936Z,77.53
2017-10-24T16:12:59.280Z,75.16
2017-10-24T16:15:28.924Z,75.74
2017-10-24T22:19:48.217Z,81.21
2017-10-24T22:22:17.164Z,80.72
2017-10-24T22:24:46.349Z,79.16
2017-10-24T22:27:15.260Z,81.43
2017-10-24T22:29:44.206Z,80.85
2017-10-24T22:32:14.172Z,79.68
2017-10-24T22:34:43.312Z,80.23
2017-10-24T22:37:13.172Z,80.64
2017-10-24T22:39:43.565Z,79.23
2017-10-24T22:42:13.213Z,78.23
2017-10-24T22:44:42.148Z,78.94
2017-10-24T22:47:12.270Z,79.02
2017-10-24T22:49:42.289Z,80.18
2017-10-24T22:54:50.559Z,79.90
2017-10-24T22:57:20.234Z,79.55
2017-10-24T22:59:50.209Z,80.92
2017-10-24T23:02:19.241Z,81.25
2017-10-24T23:04:52.542Z,81.13
2017-10-24T23:07:25.114Z,81.55
2017-10-24T23:09:56.011Z,80.81
2017-10-24T23:12:26.869Z,80.64
2017-10-24T23:14:57.772Z,83.26
2017-10-24T23:17:26.757Z,81.39
2017-10-24T23:19:57.828Z,81.25
2017-10-24T23:22:27.790Z,81.06
2017-10-24T23:24:57.152Z,82.55
2017-10-24T23:27:26.841Z,82.92
2017-10-24T23:29:55.717Z,83.53
2017-10-24T23:32:24.643Z,82.53
2017-10-24T23:34:54.409Z,82.18
2017-10-24T23:37:24.384Z,82.18
2017-10-24T23:39:53.292Z,82.72
2017-10-24T23:42:22.444Z,82.86
2017-10-24T23:44:52.097Z,82.01
2017-10-24T23:47:21.067Z,82.85
2017-10-24T23:49:50.937Z,82.72
2017-10-24T23:52:20.429Z,82.50
2017-10-24T23:54:49.852Z,81.79
2017-10-24T23:57:19.500Z,80.88
2017-10-24T23:59:48.372Z,81.72
